Time;durP1;ratioP1;P1;durP2;ratioP2;P2;SDS_P1;SDS_P2;PMS_P1;PMS_P2;Temp;Humidity;BMP_temperature;BMP_pressure;BME280_temperature;BME280_humidity;BME280_pressure;Samples;Min_cycle;Max_cycle;Signal;HPM_P1;HPM_P2
2021/05/18 00:01:50;;;;;;;0.30;0.30;;;;;;;13.07;82.98;96447.99;1667896;86;21099;-64
2021/05/18 00:04:17;;;;;;;0.25;0.25;;;;;;;13.07;83.29;96446.17;1667789;86;21083;-64
2021/05/18 00:06:46;;;;;;;0.17;0.13;;;;;;;13.07;82.95;96447.47;1667841;86;21087;-64
2021/05/18 00:11:58;;;;;;;0.60;0.30;;;;;;;13.02;82.37;96451.67;1668134;85;21043;-64
2021/05/18 00:14:26;;;;;;;0.90;0.72;;;;;;;12.98;82.30;96440.03;1667844;86;21099;-65
2021/05/18 00:16:55;;;;;;;0.23;0.23;;;;;;;12.93;82.37;96443.21;1667954;84;21071;-64
2021/05/18 00:19:22;;;;;;;1.00;0.30;;;;;;;12.89;82.99;96449.81;1668272;86;21067;-64
2021/05/18 00:21:49;;;;;;;0.42;0.40;;;;;;;12.84;82.98;96450.38;1668119;85;21059;-64
2021/05/18 00:24:16;;;;;;;0.60;0.23;;;;;;;12.79;82.75;96452.78;1668282;86;21158;-65
2021/05/18 00:26:43;;;;;;;1.87;0.30;;;;;;;12.74;83.15;96451.73;1668033;85;21115;-64
2021/05/18 00:29:10;;;;;;;0.40;0.40;;;;;;;12.74;82.97;96446.53;1660088;86;21107;-65
2021/05/18 00:31:37;;;;;;;0.30;0.30;;;;;;;12.69;82.57;96449.70;1659481;85;21091;-64
2021/05/18 00:34:05;;;;;;;0.20;0.20;;;;;;;12.69;82.42;96451.01;1659430;86;21067;-64
2021/05/18 00:36:33;;;;;;;0.20;0.20;;;;;;;12.69;82.19;96454.11;1659421;86;21068;-64
2021/05/18 00:39:00;;;;;;;0.50;0.33;;;;;;;12.66;82.22;96453.20;1659390;85;21695;-65
2021/05/18 00:41:27;;;;;;;0.35;0.30;;;;;;;12.66;82.06;96456.61;1661350;85;21651;-64
2021/05/18 00:43:53;;;;;;;0.28;0.15;;;;;;;12.62;82.44;96455.88;1660341;86;21051;-64
2021/05/18 00:46:23;;;;;;;0.20;0.20;;;;;;;12.57;81.83;96447.33;1660108;85;21052;-64
2021/05/18 00:48:56;;;;;;;0.20;0.20;;;;;;;12.57;81.53;96448.63;1659899;86;21098;-65
2021/05/18 00:51:27;;;;;;;0.20;0.20;;;;;;;12.56;81.39;96451.45;1660510;85;21048;-64
2021/05/18 00:53:57;;;;;;;0.30;0.20;;;;;;;12.57;81.63;96455.64;1659239;85;21111;-65
2021/05/18 00:59:44;;;;;;;0.33;0.20;;;;;;;12.57;81.38;96458.24;1650718;86;21705;-64
2021/05/18 01:02:11;;;;;;;0.23;0.20;;;;;;;12.57;80.56;96459.05;1639942;87;21965;-64
2021/05/18 01:04:43;;;;;;;0.10;0.10;;;;;;;12.57;80.11;96459.05;1634644;88;21147;-63
2021/05/18 01:07:09;;;;;;;0.20;0.20;;;;;;;12.57;80.61;96455.14;1634740;86;21078;-63
2021/05/18 01:09:37;;;;;;;0.20;0.20;;;;;;;12.58;80.52;96458.06;1634487;87;21166;-63
2021/05/18 01:12:06;;;;;;;0.25;0.25;;;;;;;12.61;80.28;96458.16;1634697;88;21107;-63
2021/05/18 01:14:32;;;;;;;0.33;0.33;;;;;;;12.62;80.19;96471.01;1634665;87;21103;-63
2021/05/18 01:16:59;;;;;;;0.28;0.13;;;;;;;12.55;85.36;96467.56;1634554;88;21582;-64
2021/05/18 01:19:27;;;;;;;0.60;0.40;;;;;;;12.51;84.96;96462.43;1634656;87;21618;-63
2021/05/18 01:21:56;;;;;;;0.30;0.30;;;;;;;12.45;85.75;96462.40;1634753;88;21143;-63
2021/05/18 01:24:24;;;;;;;0.55;0.30;;;;;;;12.38;86.33;96459.73;1634615;87;21566;-63
2021/05/18 01:26:51;;;;;;;0.30;0.30;;;;;;;12.43;84.22;96463.87;1634613;87;21108;-63
2021/05/18 01:29:21;;;;;;;1.17;0.45;;;;;;;12.47;83.83;96466.91;1634602;87;21220;-63
2021/05/18 01:31:47;;;;;;;0.47;0.47;;;;;;;12.38;85.90;96464.44;1645121;86;21169;-63
2021/05/18 01:34:15;;;;;;;0.45;0.37;;;;;;;12.31;88.19;96462.79;1682034;85;21024;-63
2021/05/18 01:36:45;;;;;;;0.57;0.30;;;;;;;12.30;88.39;96465.08;1684411;85;21083;-63
2021/05/18 01:44:32;;;;;;;0.28;0.28;;;;;;;12.35;85.25;96468.73;1682031;85;21575;-63
2021/05/18 01:46:59;;;;;;;0.30;0.20;;;;;;;12.37;84.45;96471.16;1684417;85;21168;-63
2021/05/18 01:49:28;;;;;;;0.50;0.37;;;;;;;12.37;84.64;96469.86;1683648;85;21582;-63
2021/05/18 01:52:00;;;;;;;0.62;0.33;;;;;;;12.33;85.74;96468.62;1684384;85;21126;-63
2021/05/18 01:54:31;;;;;;;0.40;0.35;;;;;;;12.20;88.80;96469.82;1684290;85;21034;-63
2021/05/18 01:57:21;;;;;;;0.33;0.33;;;;;;;12.18;89.03;96466.58;1684390;85;21163;-63
2021/05/18 01:59:51;;;;;;;0.40;0.40;;;;;;;12.22;87.39;96467.33;1677007;84;21174;-63
2021/05/18 02:02:22;;;;;;;0.50;0.45;;;;;;;12.24;85.28;96467.15;1683642;84;21043;-63
2021/05/18 02:04:56;;;;;;;0.55;0.55;;;;;;;12.19;88.46;96474.22;1683709;84;21096;-64
2021/05/18 02:07:32;;;;;;;1.30;0.45;;;;;;;12.11;88.91;96482.16;1684512;84;21261;-63
2021/05/18 02:10:02;;;;;;;0.50;0.50;;;;;;;12.14;88.03;96478.39;1682146;85;21544;-64
2021/05/18 02:12:31;;;;;;;0.30;0.30;;;;;;;12.09;87.65;96481.55;1684671;85;21037;-64
2021/05/18 02:15:05;;;;;;;0.60;0.50;;;;;;;12.09;87.90;96484.65;1682141;85;21067;-64
2021/05/18 02:17:35;;;;;;;1.57;0.60;;;;;;;12.08;87.88;96489.05;1683529;84;21666;-64
2021/05/18 02:25:38;;;;;;;0.62;0.50;;;;;;;12.13;88.01;96491.09;1684722;85;21142;-63
2021/05/18 02:28:08;;;;;;;1.22;0.82;;;;;;;12.10;89.67;96492.25;1684168;85;21079;-63
2021/05/18 02:30:38;;;;;;;1.22;0.85;;;;;;;12.15;89.40;96492.99;1683910;85;21142;-63
2021/05/18 02:33:05;;;;;;;1.92;1.12;;;;;;;12.16;89.30;96490.22;1684233;85;21087;-63
2021/05/18 02:35:34;;;;;;;1.47;1.10;;;;;;;12.20;89.47;96494.05;1682001;84;21060;-63
2021/05/18 02:38:01;;;;;;;1.00;0.72;;;;;;;12.22;89.45;96487.34;1684471;85;21042;-63
2021/05/18 02:40:30;;;;;;;1.42;0.75;;;;;;;12.26;89.64;96488.57;1684385;84;21190;-63
2021/05/18 02:42:57;;;;;;;1.57;1.05;;;;;;;12.28;89.03;96493.11;1682052;85;21612;-63
2021/05/18 02:50:43;;;;;;;0.88;0.62;;;;;;;12.31;89.10;96487.02;1682277;85;21159;-64
2021/05/18 02:53:10;;;;;;;0.75;0.40;;;;;;;12.40;88.15;96490.79;1684291;85;21046;-63
2021/05/18 02:55:58;;;;;;;2.35;0.55;;;;;;;12.42;87.54;96490.90;1684227;85;21063;-63
2021/05/18 02:58:18;;;;;;;0.88;0.47;;;;;;;12.46;87.15;96494.73;1683058;85;21083;-63
2021/05/18 03:00:46;;;;;;;1.37;0.60;;;;;;;12.49;85.22;96490.44;1682754;84;21680;-66
2021/05/18 03:03:12;;;;;;;1.70;0.75;;;;;;;12.53;84.81;96490.38;1683899;85;21083;-64
2021/05/18 03:05:39;;;;;;;0.90;0.78;;;;;;;12.60;84.80;96493.84;1718991;83;21102;-64
2021/05/18 03:08:08;;;;;;;0.90;0.80;;;;;;;12.62;84.95;96492.34;1718732;83;21162;-64
2021/05/18 03:10:34;;;;;;;1.35;0.85;;;;;;;12.57;84.50;96496.00;1718863;83;21107;-64
2021/05/18 03:13:03;;;;;;;1.22;1.00;;;;;;;12.46;84.91;96496.03;1718881;83;21753;-64
2021/05/18 03:15:31;;;;;;;0.82;0.57;;;;;;;12.46;85.11;96501.24;1718930;83;21051;-64
2021/05/18 03:17:59;;;;;;;1.15;0.72;;;;;;;12.35;85.77;96499.97;1718767;83;21170;-64
2021/05/18 03:20:26;;;;;;;0.78;0.55;;;;;;;12.38;86.42;96507.89;1722263;82;21038;-64
2021/05/18 03:22:54;;;;;;;2.35;0.70;;;;;;;12.42;86.17;96502.61;1740727;82;21646;-63
2021/05/18 03:25:22;;;;;;;0.62;0.50;;;;;;;12.31;86.51;96500.53;1738676;82;21047;-63
2021/05/18 03:27:51;;;;;;;0.68;0.57;;;;;;;12.32;87.11;96506.05;1738656;82;21044;-63
2021/05/18 03:35:41;;;;;;;0.68;0.45;;;;;;;12.43;85.76;96502.12;1738859;82;21555;-64
2021/05/18 03:41:01;;;;;;;2.45;1.35;;;;;;;12.55;85.55;96492.30;1738932;82;21099;-63
2021/05/18 03:54:27;;;;;;;1.20;0.98;;;;;;;12.42;86.08;96477.88;1738218;82;21099;-65
2021/05/18 04:05:08;;;;;;;1.00;0.90;;;;;;;12.42;86.60;96494.00;1741118;82;21126;-63
2021/05/18 04:10:23;;;;;;;0.45;0.45;;;;;;;12.44;85.91;96491.53;1741646;82;21122;-64
2021/05/18 04:18:13;;;;;;;3.12;0.93;;;;;;;12.37;85.05;96486.78;1740941;82;21566;-70
2021/05/18 04:20:48;;;;;;;7.83;0.68;;;;;;;12.33;85.68;96488.15;1740715;81;21087;-63
2021/05/18 04:42:39;;;;;;;2.55;2.05;;;;;;;12.53;82.82;96494.80;1741396;82;21064;-68
2021/05/18 04:59:01;;;;;;;1.52;0.82;;;;;;;12.58;82.58;96486.70;1741229;82;21095;-69
2021/05/18 05:00:44;;;;;;;0.65;0.50;;;;;;;12.65;81.67;96482.34;1741291;82;21143;-67
2021/05/18 05:03:33;;;;;;;1.00;0.72;;;;;;;12.67;81.39;96480.86;1730681;82;21226;-68
2021/05/18 05:08:30;;;;;;;1.25;0.90;;;;;;;12.80;81.15;96483.55;1720347;82;21072;-69
2021/05/18 05:16:05;;;;;;;2.70;0.80;;;;;;;12.99;80.85;96484.14;1722008;82;21059;-69
2021/05/18 05:18:32;;;;;;;1.10;0.88;;;;;;;12.99;79.87;96487.25;1721181;83;21012;-68
2021/05/18 05:20:59;;;;;;;0.78;0.78;;;;;;;13.03;80.05;96492.38;1687893;84;21567;-69
2021/05/18 05:23:26;;;;;;;0.72;0.72;;;;;;;13.00;79.95;96485.73;1706213;82;21146;-68
2021/05/18 05:25:53;;;;;;;1.22;1.00;;;;;;;13.09;80.07;96487.68;1713401;84;21134;-69
2021/05/18 05:28:20;;;;;;;1.50;0.90;;;;;;;13.14;79.60;96479.63;1713755;84;21079;-63
2021/05/18 05:30:47;;;;;;;1.37;0.90;;;;;;;13.11;80.37;96488.34;1708202;83;21070;-63
2021/05/18 05:33:14;;;;;;;1.60;0.80;;;;;;;13.20;79.91;96485.85;1712262;83;21140;-63
2021/05/18 05:35:40;;;;;;;2.33;0.72;;;;;;;13.22;79.18;96486.48;1715661;83;21581;-63
2021/05/18 05:38:07;;;;;;;1.05;0.68;;;;;;;13.26;79.44;96485.90;1715727;83;21104;-63
2021/05/18 05:40:35;;;;;;;0.70;0.60;;;;;;;13.26;79.28;96486.39;1715341;83;21600;-63
2021/05/18 05:43:02;;;;;;;1.52;1.05;;;;;;;13.31;79.11;96493.11;1715504;83;21664;-64
2021/05/18 05:45:29;;;;;;;3.40;0.95;;;;;;;13.37;78.78;96500.66;1715620;83;21164;-64
2021/05/18 05:47:56;;;;;;;0.90;0.55;;;;;;;13.43;79.06;96501.98;1715383;83;21140;-63
2021/05/18 05:50:23;;;;;;;1.42;0.60;;;;;;;13.54;78.95;96497.50;1715578;83;21049;-63
2021/05/18 05:52:50;;;;;;;1.20;0.72;;;;;;;13.66;78.67;96501.14;1715547;83;21544;-63
2021/05/18 05:55:17;;;;;;;2.30;1.42;;;;;;;13.71;76.98;96501.86;1715830;83;21037;-65
2021/05/18 05:57:45;;;;;;;13.50;5.78;;;;;;;13.40;80.30;96494.55;1715915;83;21542;-63
2021/05/18 06:00:14;;;;;;;3.00;1.95;;;;;;;13.39;80.43;96492.94;1715676;83;21085;-63
2021/05/18 06:02:41;;;;;;;2.02;1.10;;;;;;;13.35;80.75;96489.61;1715054;82;21103;-65
2021/05/18 06:05:09;;;;;;;1.52;0.90;;;;;;;13.57;80.49;96496.31;1705458;84;21087;-64
2021/05/18 06:07:37;;;;;;;1.72;1.07;;;;;;;13.74;79.33;96497.55;1671148;85;21077;-64
2021/05/18 06:10:39;;;;;;;1.75;1.12;;;;;;;13.87;78.09;96496.28;1671411;85;21134;-64
2021/05/18 06:16:29;;;;;;;4.28;0.95;;;;;;;14.11;74.94;96492.29;1632754;87;21090;-63
2021/05/18 06:35:38;;;;;;;0.60;0.60;;;;;;;14.84;69.42;96495.16;1690236;84;21608;-64
2021/05/18 06:43:21;;;;;;;;;;;;;;;15.02;67.87;96487.47;1691913;83;21628;-64
2021/05/18 06:46:03;;;;;;;1.20;0.65;;;;;;;15.10;67.04;96486.43;1688695;83;20545;-64
2021/05/18 06:48:18;;;;;;;0.82;0.53;;;;;;;15.12;67.12;96485.73;1685874;83;21634;-64
2021/05/18 06:50:45;;;;;;;0.78;0.53;;;;;;;15.14;67.34;96489.74;1690139;83;21071;-64
2021/05/18 06:53:13;;;;;;;5.17;1.62;;;;;;;15.17;67.32;96489.32;1689565;83;21081;-64
2021/05/18 06:55:40;;;;;;;1.62;1.00;;;;;;;15.19;69.49;96493.86;1690402;83;21316;-64
2021/05/18 06:58:09;;;;;;;1.12;0.60;;;;;;;15.24;68.10;96491.12;1690481;83;21175;-64
2021/05/18 07:00:37;;;;;;;0.75;0.55;;;;;;;15.20;69.06;96492.86;1690144;83;21569;-63
2021/05/18 07:03:11;;;;;;;1.67;0.85;;;;;;;15.33;67.79;96503.74;1690266;83;21262;-64
2021/05/18 07:10:42;;;;;;;0.65;0.57;;;;;;;15.36;67.43;96491.59;1690275;84;21096;-65
2021/05/18 07:13:10;;;;;;;0.47;0.40;;;;;;;15.24;67.85;96495.05;1683864;85;21139;-64
2021/05/18 07:15:38;;;;;;;0.70;0.70;;;;;;;15.37;64.29;96489.77;1681328;84;21071;-63
2021/05/18 07:18:07;;;;;;;0.78;0.30;;;;;;;15.49;61.25;96492.84;1681341;85;21586;-64
2021/05/18 07:20:35;;;;;;;0.40;0.33;;;;;;;15.72;63.65;96494.16;1681267;84;21126;-66
2021/05/18 07:23:09;;;;;;;0.37;0.30;;;;;;;15.99;64.91;96491.67;1681080;84;21131;-64
2021/05/18 07:25:31;;;;;;;0.53;0.33;;;;;;;16.15;60.53;96489.81;1680520;84;21063;-64
2021/05/18 07:28:01;;;;;;;2.55;0.30;;;;;;;16.47;62.59;96491.88;1681083;84;21574;-64
2021/05/18 07:30:27;;;;;;;0.85;0.30;;;;;;;16.59;55.77;96491.00;1681082;84;21094;-64
2021/05/18 07:32:54;;;;;;;0.30;0.30;;;;;;;16.63;53.72;96494.48;1680925;84;21083;-64
2021/05/18 07:35:21;;;;;;;0.20;0.20;;;;;;;16.64;57.31;96494.79;1681037;84;21115;-63
2021/05/18 07:37:48;;;;;;;1.12;0.30;;;;;;;16.77;55.05;96497.30;1681115;84;21118;-63
2021/05/18 07:40:15;;;;;;;0.15;0.15;;;;;;;16.84;56.71;96494.90;1681191;84;21079;-63
2021/05/18 07:42:42;;;;;;;0.17;0.10;;;;;;;16.84;54.85;96498.03;1681169;85;21062;-63
2021/05/18 07:45:15;;;;;;;0.35;0.20;;;;;;;16.92;55.74;96498.55;1681026;84;21103;-64
2021/05/18 07:47:39;;;;;;;3.87;0.40;;;;;;;16.72;54.57;96508.42;1680326;84;21606;-63
2021/05/18 07:50:11;;;;;;;0.30;0.30;;;;;;;16.68;57.95;96507.76;1681165;85;21579;-63
2021/05/18 08:06:07;;;;;;;0.20;0.20;;;;;;;16.03;61.14;96517.19;1681073;84;21119;-64
2021/05/18 08:08:34;;;;;;;1.22;0.20;;;;;;;15.94;60.73;96522.41;1681206;85;21662;-64
2021/05/18 08:11:02;;;;;;;0.78;0.40;;;;;;;15.73;60.65;96529.77;1661635;84;21051;-63
2021/05/18 08:13:30;;;;;;;0.28;0.20;;;;;;;15.74;61.16;96526.14;1692744;84;21074;-63
2021/05/18 09:47:47;;;;;;;0.10;0.10;;;;;;;15.05;62.94;96592.96;1690665;83;21153;-63
2021/05/18 10:34:46;;;;;;;0.10;0.10;;;;;;;14.79;60.66;96679.20;1690094;83;21060;-63
2021/05/18 10:37:36;;;;;;;0.10;0.10;;;;;;;14.81;59.99;96678.52;1688056;83;21144;-63
2021/05/18 10:40:27;;;;;;;0.10;0.10;;;;;;;14.70;59.70;96667.36;1699006;84;21167;-63
2021/05/18 10:43:05;;;;;;;0.23;0.10;;;;;;;14.75;59.40;96696.81;1690046;83;21086;-62
2021/05/18 10:46:02;;;;;;;0.17;0.17;;;;;;;14.59;59.21;96688.84;1658019;85;21089;-63
2021/05/18 10:48:37;;;;;;;0.13;0.10;;;;;;;14.52;59.49;96687.52;1634131;86;21119;-63
2021/05/18 10:51:33;;;;;;;0.20;0.20;;;;;;;14.43;60.67;96684.80;1679769;83;21159;-63
2021/05/18 10:54:26;;;;;;;0.33;0.20;;;;;;;14.43;60.66;96697.86;1684771;83;21092;-63
2021/05/18 10:57:00;;;;;;;0.47;0.20;;;;;;;14.51;60.29;96694.25;1682777;84;21091;-63
2021/05/18 10:59:43;;;;;;;0.20;0.20;;;;;;;14.44;60.64;96704.67;1689265;83;21091;-64
2021/05/18 11:02:19;;;;;;;0.00;0.00;;;;;;;14.52;60.63;96711.02;1685463;84;21072;-64
2021/05/18 11:05:06;;;;;;;0.08;0.08;;;;;;;14.47;59.95;96710.02;1686479;83;21087;-64
2021/05/18 11:07:37;;;;;;;0.60;0.20;;;;;;;14.53;59.33;96724.39;1667845;85;21386;-64
2021/05/18 11:10:16;;;;;;;0.33;0.20;;;;;;;14.49;59.46;96713.23;1701598;83;21114;-64
2021/05/18 11:12:51;;;;;;;0.23;0.10;;;;;;;14.34;60.29;96709.44;1703222;83;21094;-63
2021/05/18 11:15:23;;;;;;;0.10;0.10;;;;;;;14.42;60.31;96721.55;1701648;83;21198;-64
2021/05/18 11:17:53;;;;;;;0.15;0.15;;;;;;;14.34;60.05;96706.02;1708446;83;21542;-63
2021/05/18 11:23:23;;;;;;;0.10;0.10;;;;;;;14.40;59.66;96763.52;1698619;83;21071;-64
2021/05/18 11:26:08;;;;;;;0.53;0.10;;;;;;;14.32;58.82;96740.16;1667664;85;21111;-63
2021/05/18 11:28:47;;;;;;;0.10;0.10;;;;;;;14.21;58.65;96755.08;1703653;83;21182;-63
2021/05/18 11:31:23;;;;;;;0.10;0.10;;;;;;;14.29;59.26;96761.44;1702759;83;21221;-64
2021/05/18 11:33:58;;;;;;;10.35;5.47;;;;;;;14.04;58.06;96745.48;1704762;83;21619;-65
2021/05/18 11:36:30;;;;;;;12.23;6.67;;;;;;;14.36;58.93;96766.75;1705880;83;21678;-65
2021/05/18 11:39:08;;;;;;;9.95;5.70;;;;;;;14.49;58.77;96740.66;1706111;82;21182;-63
2021/05/18 11:41:38;;;;;;;21.50;10.15;;;;;;;14.46;58.84;96755.41;1702849;83;21123;-63
2021/05/18 11:44:08;;;;;;;2.25;1.07;;;;;;;14.53;59.29;96757.05;1700882;83;21051;-63
2021/05/18 11:46:45;;;;;;;0.85;0.53;;;;;;;14.50;59.00;96759.25;1711484;83;21060;-63
2021/05/18 11:49:15;;;;;;;0.37;0.30;;;;;;;14.61;58.75;96766.02;1701240;83;21165;-63
2021/05/18 11:51:46;;;;;;;0.25;0.10;;;;;;;14.67;58.96;96789.23;1696139;83;21922;-64
2021/05/18 11:54:16;;;;;;;0.30;0.20;;;;;;;14.78;58.68;96780.03;1706268;83;21058;-64
2021/05/18 11:56:44;;;;;;;0.20;0.20;;;;;;;14.68;59.33;96777.29;1700586;83;21074;-64
2021/05/18 11:59:17;;;;;;;1.85;0.20;;;;;;;14.68;59.00;96776.48;1710237;83;21149;-63
2021/05/18 12:01:54;;;;;;;0.17;0.17;;;;;;;14.47;59.19;96778.74;1719952;83;21088;-64
2021/05/18 12:04:25;;;;;;;2.22;0.20;;;;;;;14.39;59.94;96785.94;1699812;83;21141;-63
2021/05/18 12:07:08;;;;;;;0.20;0.10;;;;;;;14.18;60.03;96788.11;1698719;83;21058;-63
2021/05/18 12:09:39;;;;;;;0.40;0.28;;;;;;;14.06;60.71;96789.65;1706641;83;21154;-63
2021/05/18 12:12:10;;;;;;;0.10;0.10;;;;;;;14.08;61.13;96792.89;1706356;83;21067;-64
2021/05/18 12:14:44;;;;;;;0.10;0.10;;;;;;;14.11;60.26;96793.80;1706577;83;21175;-63
2021/05/18 12:17:11;;;;;;;1.75;0.20;;;;;;;14.11;60.47;96795.11;1704954;83;21055;-64
2021/05/18 12:19:40;;;;;;;0.17;0.17;;;;;;;14.12;60.81;96796.73;1699248;83;21100;-64
2021/05/18 12:22:08;;;;;;;0.20;0.20;;;;;;;14.14;61.13;96815.60;1715611;83;21138;-63
2021/05/18 12:24:45;;;;;;;0.40;0.20;;;;;;;14.20;60.80;96797.88;1698427;83;21170;-64
2021/05/18 12:27:11;;;;;;;0.10;0.10;;;;;;;14.26;60.71;96801.01;1694883;84;21055;-63
2021/05/18 12:29:46;;;;;;;0.20;0.20;;;;;;;14.36;60.70;96800.70;1696278;84;21067;-63
2021/05/18 12:32:28;;;;;;;0.20;0.20;;;;;;;14.43;60.02;96814.09;1689053;83;21631;-63
2021/05/18 12:34:59;;;;;;;2.50;0.20;;;;;;;14.54;60.19;96806.19;1672099;83;21226;-64
2021/05/18 12:37:45;;;;;;;0.35;0.20;;;;;;;14.71;59.33;96847.44;1691824;83;21103;-64
2021/05/18 12:40:32;;;;;;;0.20;0.20;;;;;;;15.18;59.28;96822.23;1687871;83;21127;-64
2021/05/18 12:43:22;;;;;;;0.20;0.20;;;;;;;15.57;56.71;96817.56;1679796;83;21299;-63
2021/05/18 12:45:49;;;;;;;0.10;0.10;;;;;;;16.01;56.14;96807.27;1682675;84;21602;-64
2021/05/18 12:48:16;;;;;;;0.20;0.20;;;;;;;16.40;55.66;96831.23;1676726;84;21104;-64
2021/05/18 12:50:50;;;;;;;0.25;0.10;;;;;;;16.48;55.63;96806.63;1676618;85;21056;-68
2021/05/18 12:53:30;;;;;;;0.20;0.20;;;;;;;16.51;55.59;96808.82;1674011;84;21056;-64
2021/05/18 12:55:59;;;;;;;0.25;0.20;;;;;;;16.30;54.43;96809.89;1698957;84;21099;-65
2021/05/18 12:58:30;;;;;;;0.20;0.20;;;;;;;16.15;55.40;96827.16;1677631;85;21602;-63
2021/05/18 13:01:12;;;;;;;0.10;0.10;;;;;;;15.65;55.56;96863.16;1678349;83;21686;-63
2021/05/18 13:03:42;;;;;;;0.40;0.40;;;;;;;15.60;56.54;96836.28;1659155;85;21122;-63
2021/05/18 13:06:11;;;;;;;0.10;0.10;;;;;;;15.56;56.12;96836.38;1686321;85;21107;-64
2021/05/18 13:08:41;;;;;;;21.20;9.85;;;;;;;15.50;55.89;96845.05;1661364;85;21599;-64
2021/05/18 13:13:59;;;;;;;27.87;13.83;;;;;;;15.35;56.18;96844.39;1697838;84;21178;-64
2021/05/18 13:16:35;;;;;;;17.30;8.75;;;;;;;15.41;56.95;96833.62;1677500;83;21148;-64
2021/05/18 13:19:09;;;;;;;1.42;0.90;;;;;;;15.41;56.21;96843.59;1679053;83;21138;-64
2021/05/18 13:21:57;;;;;;;0.28;0.28;;;;;;;15.38;55.69;96839.26;1681200;84;21112;-63
2021/05/18 13:27:08;;;;;;;0.30;0.20;;;;;;;15.82;54.56;96851.80;1683352;83;21117;-65
2021/05/18 13:29:35;;;;;;;0.40;0.30;;;;;;;16.35;53.82;96861.67;1719803;82;21542;-63
2021/05/18 13:32:04;;;;;;;0.10;0.10;;;;;;;16.64;53.26;96866.98;1728068;83;21089;-64
2021/05/18 13:34:31;;;;;;;0.13;0.13;;;;;;;17.02;51.18;96873.06;1707105;83;21061;-63
2021/05/18 13:36:57;;;;;;;0.20;0.20;;;;;;;17.03;51.92;96848.45;1698671;84;21103;-63
2021/05/18 13:39:25;;;;;;;0.13;0.13;;;;;;;17.07;52.35;96848.33;1695675;83;21104;-63
2021/05/18 13:41:53;;;;;;;0.40;0.17;;;;;;;16.50;53.00;96859.11;1677982;84;21113;-63
2021/05/18 13:44:20;;;;;;;0.10;0.10;;;;;;;16.34;53.61;96871.34;1681334;85;21552;-63
2021/05/18 13:46:47;;;;;;;0.47;0.20;;;;;;;15.78;54.84;96886.73;1685231;84;21092;-63
2021/05/18 13:49:15;;;;;;;1.60;0.17;;;;;;;15.46;56.02;96891.39;1651868;85;21084;-63
2021/05/18 13:51:43;;;;;;;0.10;0.10;;;;;;;15.14;56.70;96880.66;1681306;84;21127;-64
2021/05/18 13:54:10;;;;;;;0.40;0.20;;;;;;;14.80;58.14;96902.16;1654022;86;21075;-63
2021/05/18 13:56:41;;;;;;;0.37;0.30;;;;;;;14.54;59.59;96897.13;1642278;87;21167;-63
2021/05/18 13:59:09;;;;;;;0.20;0.20;;;;;;;14.42;59.72;96899.97;1661591;85;21063;-63
2021/05/18 14:01:36;;;;;;;0.45;0.30;;;;;;;14.34;60.18;96877.08;1685070;85;21087;-64
2021/05/18 14:04:04;;;;;;;0.25;0.10;;;;;;;14.34;60.37;96880.50;1655953;85;21112;-63
2021/05/18 14:06:32;;;;;;;0.23;0.23;;;;;;;14.32;60.96;96882.48;1655940;86;21131;-63
2021/05/18 14:08:59;;;;;;;0.20;0.20;;;;;;;14.20;61.26;96895.27;1660011;85;21155;-64
2021/05/18 14:11:26;;;;;;;0.28;0.20;;;;;;;14.24;59.81;96886.55;1670935;85;21584;-65
2021/05/18 14:13:55;;;;;;;5.03;0.30;;;;;;;14.04;60.77;96889.55;1632770;88;21603;-65
2021/05/18 14:16:23;;;;;;;0.10;0.10;;;;;;;14.09;60.84;96899.71;1645156;87;21041;-64
2021/05/18 14:18:53;;;;;;;0.85;0.50;;;;;;;13.91;61.96;96922.88;1653261;87;21553;-64
2021/05/18 14:21:25;;;;;;;0.10;0.10;;;;;;;13.97;60.88;96891.31;1653214;87;21064;-64
2021/05/18 14:26:26;;;;;;;0.20;0.20;;;;;;;14.00;61.47;96889.62;1653117;87;21041;-65
2021/05/18 14:28:53;;;;;;;0.37;0.20;;;;;;;14.10;60.98;96884.86;1653141;87;21198;-65
2021/05/18 14:31:21;;;;;;;0.10;0.10;;;;;;;14.13;60.51;96894.42;1653153;87;21071;-64
2021/05/18 14:33:48;;;;;;;0.20;0.20;;;;;;;14.22;59.76;96896.39;1653301;87;21013;-64
2021/05/18 14:36:15;;;;;;;0.30;0.13;;;;;;;14.21;59.98;96887.75;1653219;87;21154;-64
2021/05/18 14:38:45;;;;;;;0.60;0.20;;;;;;;14.32;59.70;96915.65;1652963;87;21049;-64
2021/05/18 14:46:56;;;;;;;0.42;0.15;;;;;;;14.51;59.11;96945.03;1750668;82;20225;-63
2021/05/18 14:55:00;;;;;;;0.70;0.10;;;;;;;14.93;57.98;96898.30;1751405;82;21678;-63
2021/05/18 14:57:24;;;;;;;0.20;0.20;;;;;;;14.93;57.47;96904.34;1731336;81;21179;-63
2021/05/18 14:59:51;;;;;;;0.20;0.20;;;;;;;14.88;57.84;96942.01;1751590;82;21092;-63
2021/05/18 15:02:18;;;;;;;0.40;0.40;;;;;;;14.78;57.50;96915.94;1751496;82;21175;-63
2021/05/18 15:04:45;;;;;;;0.10;0.10;;;;;;;14.78;57.63;96925.08;1751350;82;21572;-66
2021/05/18 15:07:12;;;;;;;0.20;0.20;;;;;;;14.69;58.10;96920.02;1751231;82;21170;-63
2021/05/18 15:09:40;;;;;;;0.10;0.10;;;;;;;14.67;57.94;96922.00;1751397;82;21084;-63
2021/05/18 15:12:09;;;;;;;0.15;0.15;;;;;;;14.60;58.46;96934.22;1751608;82;21155;-63
2021/05/18 15:14:36;;;;;;;0.20;0.20;;;;;;;14.50;58.83;96925.94;1751354;82;21005;-63
2021/05/18 15:17:04;;;;;;;0.20;0.20;;;;;;;14.41;59.07;96930.19;1751342;82;21132;-64
2021/05/18 15:19:31;;;;;;;0.20;0.20;;;;;;;14.32;59.01;96929.48;1751420;82;21104;-67
2021/05/18 15:21:59;;;;;;;0.20;0.20;;;;;;;14.33;59.87;96931.61;1751347;82;21144;-63
2021/05/18 15:24:28;;;;;;;0.15;0.15;;;;;;;14.31;59.79;96923.17;1751473;82;21592;-63
2021/05/18 15:26:56;;;;;;;0.10;0.10;;;;;;;14.29;59.33;96923.34;1751200;81;21387;-63
2021/05/18 15:29:24;;;;;;;0.28;0.20;;;;;;;14.27;58.67;96941.02;1751432;82;21691;-62
2021/05/18 15:31:51;;;;;;;2.77;0.25;;;;;;;14.21;59.44;96925.61;1751354;82;21183;-63
2021/05/18 15:34:19;;;;;;;0.10;0.10;;;;;;;14.26;59.58;96935.48;1751341;82;21652;-63
2021/05/18 15:36:46;;;;;;;0.10;0.10;;;;;;;14.28;59.57;96938.20;1751378;82;21073;-63
2021/05/18 15:39:13;;;;;;;0.10;0.10;;;;;;;14.28;59.69;96930.37;1729220;81;21077;-63
2021/05/18 15:41:41;;;;;;;0.20;0.20;;;;;;;14.25;59.58;96939.09;1751371;82;21112;-63
2021/05/18 15:44:08;;;;;;;0.20;0.17;;;;;;;14.26;59.71;96932.38;1751370;82;21191;-63
2021/05/18 15:46:35;;;;;;;0.20;0.20;;;;;;;14.25;59.21;96933.38;1751199;81;21200;-63
2021/05/18 15:49:02;;;;;;;0.40;0.20;;;;;;;14.21;59.45;96937.85;1751393;82;21160;-63
2021/05/18 15:51:30;;;;;;;0.85;0.20;;;;;;;14.13;59.61;96951.86;1751590;81;21065;-63
2021/05/18 15:53:56;;;;;;;0.80;0.20;;;;;;;13.98;60.22;96951.63;1751505;82;21175;-63
2021/05/18 15:56:24;;;;;;;0.40;0.28;;;;;;;13.95;60.61;96946.79;1751442;82;21081;-63
2021/05/18 15:58:51;;;;;;;0.37;0.28;;;;;;;13.92;60.55;96937.55;1751363;82;21164;-63
2021/05/18 16:01:18;;;;;;;0.15;0.15;;;;;;;13.86;60.31;96938.28;1751195;82;21188;-63
2021/05/18 16:03:46;;;;;;;0.20;0.20;;;;;;;13.80;60.22;96957.31;1751434;82;21696;-63
2021/05/18 16:06:13;;;;;;;0.10;0.10;;;;;;;13.69;60.05;96953.90;1751267;82;21136;-62
2021/05/18 16:11:09;;;;;;;0.30;0.20;;;;;;;13.49;61.06;96965.44;1751427;82;21227;-63
2021/05/18 16:13:39;;;;;;;0.17;0.15;;;;;;;13.48;60.67;96956.48;1729273;82;21121;-63
2021/05/18 16:16:11;;;;;;;0.10;0.10;;;;;;;13.45;60.81;96968.10;1751398;82;21083;-64
2021/05/18 16:18:41;;;;;;;0.88;0.20;;;;;;;13.32;61.42;96967.95;1750310;81;21624;-63
2021/05/18 16:21:09;;;;;;;0.55;0.30;;;;;;;13.32;61.47;96967.95;1751316;82;21696;-63
2021/05/18 16:23:40;;;;;;;0.30;0.20;;;;;;;13.26;61.63;96962.98;1751328;82;21052;-63
2021/05/18 16:26:08;;;;;;;0.40;0.20;;;;;;;13.22;61.63;96967.45;1751393;82;21068;-63
2021/05/18 16:28:37;;;;;;;0.30;0.30;;;;;;;13.16;61.04;96980.70;1751385;82;21168;-63
2021/05/18 16:31:07;;;;;;;0.28;0.28;;;;;;;13.08;61.45;96983.37;1751285;81;21215;-63
2021/05/18 16:33:33;;;;;;;0.20;0.20;;;;;;;13.05;61.44;96974.63;1751363;82;21076;-66
2021/05/18 16:36:00;;;;;;;0.10;0.10;;;;;;;13.02;61.76;96981.51;1751423;81;21100;-63
2021/05/18 16:38:26;;;;;;;0.20;0.10;;;;;;;12.96;61.64;96980.10;1751549;81;21073;-62
2021/05/18 16:40:54;;;;;;;0.17;0.17;;;;;;;12.94;61.65;96978.19;1751456;81;21104;-63
2021/05/18 16:43:23;;;;;;;0.20;0.20;;;;;;;12.89;62.81;96977.42;1751585;81;21025;-68
2021/05/18 16:45:50;;;;;;;0.10;0.10;;;;;;;12.87;62.76;96972.09;1751345;81;21105;-63
2021/05/18 16:48:17;;;;;;;0.33;0.33;;;;;;;12.79;64.07;96972.50;1751569;82;21541;-64
2021/05/18 16:50:45;;;;;;;0.40;0.37;;;;;;;12.78;63.08;96977.88;1751561;82;21537;-63